createdAt,value
2023-01-21T00:00:59.786Z,27.35
2023-01-21T00:03:26.461Z,29.00
2023-01-21T00:05:53.045Z,25.35
2023-01-21T00:08:19.616Z,28.23
2023-01-21T00:10:46.107Z,28.67
2023-01-21T00:13:12.561Z,28.83
2023-01-21T00:15:39.145Z,29.35
2023-01-21T00:18:05.790Z,30.38
2023-01-21T00:20:32.731Z,29.80
2023-01-21T00:22:59.285Z,31.50
2023-01-21T00:25:25.836Z,28.83
2023-01-21T00:27:52.302Z,27.92
2023-01-21T00:30:19.201Z,26.83
2023-01-21T00:32:45.721Z,30.27
2023-01-21T00:35:12.202Z,28.48
2023-01-21T00:37:38.706Z,28.63
2023-01-21T00:40:06.518Z,29.33
2023-01-21T00:42:33.000Z,29.17
2023-01-21T00:44:59.951Z,27.58
2023-01-21T00:47:26.614Z,31.30
2023-01-21T00:49:53.029Z,32.22
2023-01-21T00:52:19.577Z,29.85
2023-01-21T00:54:46.028Z,29.25
2023-01-21T00:57:13.803Z,29.20
2023-01-21T00:59:40.716Z,26.88
2023-01-21T01:02:07.200Z,24.92
2023-01-21T01:04:33.767Z,26.23
2023-01-21T01:07:00.238Z,27.58
2023-01-21T01:09:26.748Z,28.17
2023-01-21T01:11:53.203Z,28.23
2023-01-21T01:14:20.032Z,26.02
2023-01-21T01:16:46.494Z,27.25
2023-01-21T01:19:13.115Z,28.95
2023-01-21T01:21:39.575Z,26.45
2023-01-21T01:24:06.421Z,27.40
2023-01-21T01:26:35.454Z,24.92
2023-01-21T01:29:03.956Z,27.15
2023-01-21T01:31:30.493Z,20.23
2023-01-21T01:33:57.692Z,25.95
2023-01-21T01:36:24.531Z,28.92
2023-01-21T01:38:52.297Z,27.80
2023-01-21T01:41:24.718Z,27.88
2023-01-21T01:44:05.225Z,27.23
2023-01-21T01:46:36.601Z,25.00
2023-01-21T01:49:22.158Z,28.67
2023-01-21T01:51:55.935Z,26.60
2023-01-21T01:54:28.717Z,27.88
2023-01-21T01:56:59.954Z,29.88
2023-01-21T01:59:27.780Z,26.88
2023-01-21T02:01:55.896Z,27.92
2023-01-21T02:04:27.351Z,29.95
2023-01-21T02:06:55.781Z,28.92
2023-01-21T02:09:23.290Z,27.92
2023-01-21T02:11:49.940Z,29.45
2023-01-21T02:14:16.655Z,29.60
2023-01-21T02:17:00.292Z,31.13
2023-01-21T02:19:32.837Z,29.15
2023-01-21T02:22:17.564Z,27.77
2023-01-21T02:25:21.589Z,27.85
2023-01-21T02:28:25.634Z,26.63
2023-01-21T02:31:25.124Z,27.90
2023-01-21T02:34:13.108Z,29.17
2023-01-21T02:37:07.003Z,30.33
2023-01-21T02:39:45.020Z,29.88
2023-01-21T02:42:29.366Z,29.95
2023-01-21T02:45:01.766Z,30.27
2023-01-21T02:47:47.405Z,30.02
2023-01-21T02:50:33.222Z,29.13
2023-01-21T02:53:01.767Z,30.02
2023-01-21T02:55:35.623Z,29.58
2023-01-21T02:58:14.795Z,29.23
2023-01-21T03:00:57.536Z,28.85
2023-01-21T03:03:36.294Z,29.77
2023-01-21T03:06:18.436Z,31.13
2023-01-21T03:08:54.100Z,28.27
2023-01-21T03:11:22.298Z,29.38
2023-01-21T03:14:19.018Z,31.13
2023-01-21T03:16:57.576Z,32.08
2023-01-21T03:19:32.480Z,30.58
2023-01-21T03:22:02.239Z,31.00
2023-01-21T03:24:29.430Z,30.75
2023-01-21T03:26:58.932Z,32.58
2023-01-21T03:29:29.955Z,30.83
2023-01-21T03:32:05.087Z,31.10
2023-01-21T03:34:36.421Z,31.10
2023-01-21T03:37:28.498Z,32.17
2023-01-21T03:40:19.013Z,27.65
2023-01-21T03:42:47.988Z,29.75
2023-01-21T03:45:14.763Z,29.27
2023-01-21T03:47:50.428Z,29.73
2023-01-21T03:50:23.231Z,30.25
2023-01-21T03:52:50.134Z,30.45
2023-01-21T03:55:17.609Z,29.52
2023-01-21T03:57:44.321Z,29.00
2023-01-21T04:00:11.515Z,28.92
2023-01-21T04:02:37.953Z,29.70
2023-01-21T04:05:04.764Z,28.98
2023-01-21T04:07:31.265Z,31.60
2023-01-21T04:09:57.733Z,31.42
2023-01-21T04:12:24.269Z,30.15
2023-01-21T04:14:50.783Z,32.75
2023-01-21T04:17:17.319Z,30.65
2023-01-21T04:19:43.838Z,30.90
2023-01-21T04:22:10.360Z,30.67
2023-01-21T04:24:36.870Z,31.80
2023-01-21T04:27:03.402Z,32.65
2023-01-21T04:29:29.871Z,29.77
2023-01-21T04:31:56.368Z,30.77
2023-01-21T04:34:22.913Z,30.23
2023-01-21T04:36:49.357Z,29.73
2023-01-21T04:39:15.924Z,30.60
2023-01-21T04:41:42.436Z,32.42
2023-01-21T04:44:09.042Z,31.33
2023-01-21T04:46:35.497Z,31.00
2023-01-21T04:49:01.992Z,31.88
2023-01-21T04:51:28.503Z,31.13
2023-01-21T04:53:55.038Z,28.55
2023-01-21T04:56:21.493Z,29.75
2023-01-21T04:58:47.951Z,31.17
2023-01-21T05:01:14.507Z,27.90
2023-01-21T05:03:41.035Z,31.35
2023-01-21T05:06:07.630Z,29.95
2023-01-21T05:08:34.091Z,33.30
2023-01-21T05:11:00.566Z,30.65
2023-01-21T05:13:27.035Z,31.90
2023-01-21T05:15:53.797Z,30.73
2023-01-21T05:18:20.336Z,30.55
2023-01-21T05:20:46.773Z,28.88
2023-01-21T05:23:13.274Z,29.27
2023-01-21T05:25:39.760Z,29.60
2023-01-21T05:28:06.268Z,30.98
2023-01-21T05:30:32.805Z,29.30
2023-01-21T05:32:59.274Z,29.27
2023-01-21T05:35:25.814Z,31.13
2023-01-21T05:37:52.284Z,27.95
2023-01-21T05:40:19.437Z,28.90
2023-01-21T05:42:46.460Z,30.20
2023-01-21T05:45:13.253Z,29.85
2023-01-21T05:47:39.899Z,30.30
2023-01-21T05:50:06.888Z,30.20
2023-01-21T05:52:33.384Z,31.65
2023-01-21T05:55:02.192Z,30.92
2023-01-21T05:57:29.859Z,29.98
2023-01-21T05:59:56.481Z,30.73
2023-01-21T06:02:23.024Z,30.48
2023-01-21T06:04:49.529Z,30.85
2023-01-21T06:07:16.462Z,28.65
2023-01-21T06:09:43.037Z,30.83
2023-01-21T06:12:09.572Z,29.40
2023-01-21T06:14:36.002Z,29.73
2023-01-21T06:17:02.499Z,31.20
2023-01-21T06:19:29.014Z,33.10
2023-01-21T06:21:55.472Z,32.75
2023-01-21T06:24:21.970Z,31.80
2023-01-21T06:26:48.401Z,31.40
2023-01-21T06:29:14.836Z,30.35
2023-01-21T06:31:41.489Z,31.58
2023-01-21T06:34:08.045Z,32.20
2023-01-21T06:36:34.580Z,31.15
2023-01-21T06:39:01.042Z,32.33
2023-01-21T06:41:27.479Z,32.20
2023-01-21T06:43:53.907Z,32.53
2023-01-21T06:46:20.412Z,30.30
2023-01-21T06:48:46.955Z,33.42
2023-01-21T06:51:13.407Z,33.63
2023-01-21T06:53:39.875Z,35.00
2023-01-21T06:56:06.606Z,33.25
2023-01-21T06:58:33.060Z,36.30
2023-01-21T07:00:59.543Z,36.30
2023-01-21T07:03:25.996Z,34.92
2023-01-21T07:05:52.557Z,36.35
2023-01-21T07:08:18.983Z,37.25
2023-01-21T07:10:47.643Z,38.70
2023-01-21T07:13:14.318Z,35.58
2023-01-21T07:15:40.787Z,40.63
2023-01-21T07:18:07.283Z,38.70
2023-01-21T07:20:34.023Z,42.00
2023-01-21T07:23:00.450Z,42.25
2023-01-21T07:25:27.175Z,39.67
2023-01-21T07:27:53.671Z,37.67
2023-01-21T07:30:21.305Z,38.53
2023-01-21T07:32:47.924Z,37.33
2023-01-21T07:35:14.873Z,39.83
2023-01-21T07:37:41.676Z,35.90
2023-01-21T07:40:08.831Z,36.28
2023-01-21T07:42:35.396Z,38.42
2023-01-21T07:45:03.835Z,42.00
2023-01-21T07:47:30.427Z,40.38
2023-01-21T07:49:56.966Z,37.10
2023-01-21T07:52:23.452Z,67.00
2023-01-21T07:54:49.943Z,79.05
2023-01-21T07:57:16.369Z,41.47
2023-01-21T07:59:43.032Z,47.40
2023-01-21T08:02:11.835Z,65.70
2023-01-21T08:04:38.337Z,32.47
2023-01-21T08:07:11.926Z,34.22
2023-01-21T08:09:39.489Z,34.42
2023-01-21T08:12:07.716Z,30.50
2023-01-21T08:14:34.202Z,32.03
2023-01-21T08:17:01.001Z,37.40
2023-01-21T08:19:27.898Z,31.00
2023-01-21T08:21:54.379Z,37.65
2023-01-21T08:24:20.863Z,35.13
2023-01-21T08:26:48.546Z,32.40
2023-01-21T08:29:15.449Z,31.67
2023-01-21T08:31:41.941Z,29.90
2023-01-21T08:34:08.535Z,26.95
2023-01-21T08:36:35.019Z,29.65
2023-01-21T08:39:02.013Z,29.55
2023-01-21T08:41:28.712Z,31.38
2023-01-21T08:43:55.212Z,27.80
2023-01-21T08:46:21.694Z,29.40
2023-01-21T08:48:48.376Z,30.23
2023-01-21T08:51:15.039Z,39.38
2023-01-21T08:53:41.566Z,31.85
2023-01-21T08:56:08.119Z,29.45
2023-01-21T08:58:34.933Z,28.20
2023-01-21T09:01:10.141Z,34.25
2023-01-21T09:03:36.864Z,31.10
2023-01-21T09:06:05.368Z,30.95
2023-01-21T09:08:32.510Z,31.23
2023-01-21T09:11:03.401Z,30.00
2023-01-21T09:13:32.053Z,28.08
2023-01-21T09:15:58.636Z,31.88
2023-01-21T09:18:25.273Z,26.45
2023-01-21T09:20:52.130Z,28.92
2023-01-21T09:23:25.056Z,32.67
2023-01-21T09:26:05.589Z,28.92
2023-01-21T09:28:36.301Z,27.52
2023-01-21T09:31:05.896Z,28.70
2023-01-21T09:33:35.430Z,28.27
2023-01-21T09:36:04.505Z,29.20
2023-01-21T09:38:31.154Z,32.72
2023-01-21T09:41:12.173Z,29.92
2023-01-21T09:43:50.794Z,31.38
2023-01-21T09:46:36.039Z,29.50
2023-01-21T09:49:05.621Z,26.17
2023-01-21T09:51:47.687Z,27.30
2023-01-21T09:54:34.154Z,31.70
2023-01-21T09:57:19.463Z,29.13
2023-01-21T10:00:05.482Z,29.02
2023-01-21T10:02:48.793Z,26.73
2023-01-21T10:05:18.670Z,28.00
2023-01-21T10:07:52.890Z,28.98
2023-01-21T10:10:32.457Z,30.75
2023-01-21T10:13:13.329Z,29.13
2023-01-21T10:15:49.717Z,27.85
2023-01-21T10:18:26.136Z,30.40
2023-01-21T10:20:56.884Z,27.25
2023-01-21T10:23:33.964Z,31.27
2023-01-21T10:26:07.671Z,29.95
2023-01-21T10:28:34.493Z,29.70
2023-01-21T10:31:18.783Z,30.85
2023-01-21T10:33:45.350Z,27.50
2023-01-21T10:36:45.215Z,31.05
2023-01-21T10:39:36.513Z,30.70
2023-01-21T10:42:43.034Z,29.42
2023-01-21T10:45:34.963Z,32.30
2023-01-21T10:48:11.594Z,25.50
2023-01-21T10:50:50.917Z,26.02
2023-01-21T10:53:56.662Z,29.08
2023-01-21T10:56:33.946Z,27.17
2023-01-21T10:59:05.838Z,23.77
2023-01-21T11:01:50.295Z,23.25
2023-01-21T11:04:20.698Z,25.88
2023-01-21T11:06:59.134Z,24.42
2023-01-21T11:09:30.065Z,24.88
2023-01-21T11:11:56.610Z,23.83
2023-01-21T11:14:25.572Z,25.35
2023-01-21T11:16:53.381Z,22.95
2023-01-21T11:19:27.852Z,25.17
2023-01-21T11:21:57.260Z,24.27
2023-01-21T11:24:25.669Z,23.70
2023-01-21T11:26:55.078Z,23.30
2023-01-21T11:29:23.735Z,22.10
2023-01-21T11:32:18.449Z,24.95
2023-01-21T11:34:47.389Z,22.52
2023-01-21T11:37:27.052Z,22.33
2023-01-21T11:39:56.305Z,23.55
2023-01-21T11:42:23.795Z,24.08
2023-01-21T11:45:01.381Z,23.83
2023-01-21T11:47:36.208Z,21.88
2023-01-21T11:50:34.805Z,18.13
2023-01-21T11:53:07.757Z,19.10
2023-01-21T11:55:40.740Z,21.90
2023-01-21T11:58:23.657Z,19.63
2023-01-21T12:00:53.677Z,24.88
2023-01-21T12:03:24.823Z,21.20
2023-01-21T12:05:53.264Z,21.67
2023-01-21T12:08:25.968Z,22.33
2023-01-21T12:10:55.911Z,25.73
2023-01-21T12:13:55.321Z,13.40
2023-01-21T12:16:28.688Z,23.15
2023-01-21T12:19:26.601Z,28.30
2023-01-21T12:22:24.246Z,21.33
2023-01-21T12:24:56.879Z,16.67
2023-01-21T12:27:39.832Z,26.90
2023-01-21T12:30:25.183Z,22.75
2023-01-21T12:33:00.165Z,21.92
2023-01-21T12:35:32.877Z,26.65
2023-01-21T12:38:04.995Z,18.92
2023-01-21T12:40:36.950Z,15.02
2023-01-21T12:43:34.795Z,18.63
2023-01-21T12:46:13.957Z,21.77
2023-01-21T12:48:57.428Z,21.08
2023-01-21T12:51:30.344Z,19.95
2023-01-21T12:54:05.846Z,18.75
2023-01-21T12:57:04.877Z,19.05
2023-01-21T12:59:43.561Z,16.45
2023-01-21T13:02:21.987Z,19.63
2023-01-21T13:05:53.451Z,18.05
2023-01-21T13:08:35.297Z,18.63
2023-01-21T13:11:27.713Z,26.98
2023-01-21T13:14:09.247Z,19.92
2023-01-21T13:16:43.483Z,20.48
2023-01-21T13:19:14.330Z,15.37
2023-01-21T13:22:02.170Z,14.98
2023-01-21T13:24:33.320Z,22.35
2023-01-21T13:26:59.702Z,20.58
2023-01-21T13:29:28.906Z,20.65
2023-01-21T13:32:19.961Z,18.15
2023-01-21T13:35:06.794Z,19.95
2023-01-21T13:37:41.565Z,17.75
2023-01-21T13:40:32.694Z,15.00
2023-01-21T13:43:21.315Z,18.27
2023-01-21T13:46:06.367Z,23.08
2023-01-21T13:48:59.102Z,21.55
2023-01-21T13:52:05.287Z,27.27
2023-01-21T13:54:34.483Z,22.38
2023-01-21T13:57:21.818Z,20.75
2023-01-21T14:00:00.585Z,22.77
2023-01-21T14:02:38.333Z,20.55
2023-01-21T14:05:10.853Z,21.05
2023-01-21T14:07:50.665Z,19.50
2023-01-21T14:10:44.554Z,19.80
2023-01-21T18:22:53.112Z,20.50
2023-01-21T18:25:20.418Z,21.92
2023-01-21T18:27:51.834Z,20.42
2023-01-21T18:30:20.280Z,21.23
2023-01-21T18:32:46.985Z,22.92
2023-01-21T18:35:19.456Z,20.80
2023-01-21T18:37:46.318Z,22.35
2023-01-21T18:40:17.652Z,21.27
2023-01-21T18:42:45.966Z,21.17
2023-01-21T18:45:20.479Z,16.35
2023-01-21T18:47:48.572Z,21.17
2023-01-21T18:50:20.473Z,21.42
2023-01-21T18:52:47.059Z,20.55
2023-01-21T18:55:15.315Z,21.58
2023-01-21T18:57:44.150Z,22.92
2023-01-21T19:00:18.996Z,22.42
2023-01-21T19:02:46.172Z,20.83
2023-01-21T19:05:13.011Z,20.92
2023-01-21T19:07:39.516Z,21.20
2023-01-21T19:10:06.753Z,21.88
2023-01-21T19:12:33.215Z,23.92
2023-01-21T19:15:00.186Z,24.13
2023-01-21T19:17:29.765Z,24.02
2023-01-21T19:19:57.019Z,26.08
2023-01-21T19:22:23.819Z,24.13
2023-01-21T19:24:50.656Z,23.58
2023-01-21T19:27:33.991Z,19.77
2023-01-21T19:30:00.458Z,24.00
2023-01-21T19:32:26.984Z,23.92
2023-01-21T19:34:54.460Z,24.60
2023-01-21T19:37:23.224Z,24.92
2023-01-21T19:39:49.713Z,23.40
2023-01-21T19:42:16.451Z,26.52
2023-01-21T19:44:43.101Z,26.20
2023-01-21T19:47:24.732Z,24.77
2023-01-21T19:49:51.217Z,23.70
2023-01-21T19:52:17.687Z,22.85
2023-01-21T19:54:44.152Z,25.17
2023-01-21T19:57:15.257Z,25.98
2023-01-21T19:59:45.439Z,27.25
2023-01-21T20:02:12.506Z,27.38
2023-01-21T20:04:39.583Z,27.55
2023-01-21T20:07:07.169Z,24.80
2023-01-21T20:09:33.609Z,27.13
2023-01-21T20:12:02.130Z,29.35
2023-01-21T20:14:30.692Z,25.67
2023-01-21T20:16:57.117Z,26.10
2023-01-21T20:19:23.707Z,26.05
2023-01-21T20:22:01.197Z,24.13
2023-01-21T20:24:30.293Z,27.23
2023-01-21T20:26:58.079Z,24.77
2023-01-21T20:29:26.542Z,27.35
2023-01-21T20:31:54.297Z,24.88
2023-01-21T20:34:20.954Z,26.90
2023-01-21T20:36:49.533Z,27.38
2023-01-21T20:39:16.177Z,24.55
2023-01-21T20:41:43.393Z,23.27
2023-01-21T20:44:10.385Z,23.10
2023-01-21T20:46:36.955Z,24.55
2023-01-21T20:49:03.489Z,22.92
2023-01-21T20:51:30.049Z,26.92
2023-01-21T20:53:56.544Z,25.52
2023-01-21T20:56:34.984Z,23.80
2023-01-21T20:59:01.492Z,22.15
2023-01-21T21:01:28.734Z,25.50
2023-01-21T21:03:55.563Z,23.00
2023-01-21T21:06:25.956Z,26.55
2023-01-21T21:08:52.712Z,22.33
2023-01-21T21:11:20.002Z,27.17
2023-01-21T21:13:48.485Z,22.20
2023-01-21T21:16:20.132Z,26.50
2023-01-21T21:18:47.608Z,22.77
2023-01-21T21:21:15.544Z,22.73
2023-01-21T21:23:41.989Z,20.73
2023-01-21T21:26:29.090Z,22.42
2023-01-21T21:28:55.904Z,22.42
2023-01-21T21:31:23.898Z,20.02
2023-01-21T21:33:50.735Z,23.67
2023-01-21T21:36:23.074Z,24.08
2023-01-21T21:38:50.021Z,19.27
2023-01-21T21:41:37.372Z,21.40
2023-01-21T21:44:08.069Z,21.63
2023-01-21T21:46:53.729Z,21.88
2023-01-21T21:49:20.209Z,24.50
2023-01-21T21:51:46.705Z,21.25
2023-01-21T21:54:15.832Z,21.95
2023-01-21T21:56:42.852Z,21.40
2023-01-21T21:59:10.343Z,23.52
2023-01-21T22:01:36.971Z,21.48
2023-01-21T22:04:04.561Z,22.17
2023-01-21T22:06:32.118Z,22.75
2023-01-21T22:08:59.327Z,22.33
2023-01-21T22:11:27.226Z,23.58
2023-01-21T22:13:54.754Z,22.17
2023-01-21T22:16:27.570Z,22.45
2023-01-21T22:18:55.049Z,20.90
2023-01-21T22:21:24.800Z,22.77
2023-01-21T22:23:52.595Z,22.48
2023-01-21T22:26:21.836Z,22.15
2023-01-21T22:28:49.055Z,22.83
2023-01-21T22:31:26.590Z,23.45
2023-01-21T22:33:53.521Z,22.13
2023-01-21T22:36:22.375Z,20.63
2023-01-21T22:38:49.468Z,21.55
2023-01-21T22:41:18.185Z,21.15
2023-01-21T22:43:45.793Z,23.48
2023-01-21T22:46:14.520Z,22.13
2023-01-21T22:48:42.151Z,23.08
2023-01-21T22:51:12.812Z,22.38
2023-01-21T22:53:45.465Z,22.63
2023-01-21T22:56:14.606Z,22.48
2023-01-21T22:58:41.418Z,23.52
2023-01-21T23:01:08.718Z,23.88
2023-01-21T23:03:36.848Z,20.35
2023-01-21T23:06:06.190Z,22.20
2023-01-21T23:08:33.312Z,20.65
2023-01-21T23:11:01.768Z,22.15
2023-01-21T23:13:28.607Z,21.55
2023-01-21T23:15:55.175Z,20.38
2023-01-21T23:18:22.264Z,21.20
2023-01-21T23:20:48.866Z,21.50
2023-01-21T23:23:15.388Z,20.25
2023-01-21T23:25:43.210Z,19.02
2023-01-21T23:28:11.905Z,18.92
2023-01-21T23:30:38.748Z,21.67
2023-01-21T23:33:05.291Z,23.55
2023-01-21T23:35:34.318Z,22.55
2023-01-21T23:38:02.406Z,19.60
2023-01-21T23:40:28.840Z,19.02
2023-01-21T23:42:55.375Z,16.95
2023-01-21T23:45:21.820Z,21.98
2023-01-21T23:47:48.584Z,19.38
2023-01-21T23:50:15.608Z,21.35
2023-01-21T23:52:42.194Z,20.45
2023-01-21T23:55:10.375Z,19.88
2023-01-21T23:57:37.555Z,22.50
